createdAt,value
2023-05-07T00:03:10.003Z,9.90
2023-05-07T00:09:03.791Z,9.80
2023-05-07T00:14:58.352Z,9.90
2023-05-07T00:20:51.627Z,10.00
2023-05-07T00:26:44.668Z,9.90
2023-05-07T00:32:39.369Z,9.90
2023-05-07T00:38:32.532Z,9.90
2023-05-07T00:44:26.280Z,9.90
2023-05-07T00:50:21.207Z,9.90
2023-05-07T00:56:14.547Z,9.80
2023-05-07T01:02:08.013Z,10.00
2023-05-07T01:08:04.306Z,9.80
2023-05-07T01:13:58.912Z,9.80
2023-05-07T01:19:54.234Z,9.90
2023-05-07T01:25:54.943Z,9.90
2023-05-07T01:31:52.887Z,9.80
2023-05-07T01:37:48.753Z,9.80
2023-05-07T01:43:44.705Z,9.80
2023-05-07T01:49:38.093Z,9.80
2023-05-07T01:55:31.329Z,9.80
2023-05-07T02:01:27.205Z,9.80
2023-05-07T02:07:20.884Z,9.80
2023-05-07T02:13:14.687Z,9.70
2023-05-07T02:19:09.623Z,9.80
2023-05-07T02:25:03.492Z,9.80
2023-05-07T02:30:57.159Z,9.90
2023-05-07T02:36:51.971Z,9.70
2023-05-07T02:42:49.420Z,9.70
2023-05-07T02:48:42.950Z,9.70
2023-05-07T02:54:37.819Z,9.80
2023-05-07T03:00:31.244Z,9.80
2023-05-07T03:06:45.006Z,9.70
2023-05-07T03:12:39.665Z,9.70
2023-05-07T03:18:33.228Z,9.70
2023-05-07T03:24:26.792Z,9.70
2023-05-07T03:30:21.823Z,9.70
2023-05-07T03:36:15.478Z,9.70
2023-05-07T03:42:09.501Z,9.70
2023-05-07T03:48:04.674Z,9.70
2023-05-07T03:53:58.621Z,9.70
2023-05-07T03:59:54.500Z,9.60
2023-05-07T04:05:49.095Z,9.60
2023-05-07T04:11:42.596Z,9.60
2023-05-07T04:17:37.805Z,9.70
2023-05-07T04:23:32.933Z,9.80
2023-05-07T04:29:30.158Z,9.80
2023-05-07T04:35:23.749Z,9.90
2023-05-07T04:41:18.517Z,9.80
2023-05-07T04:47:11.928Z,9.80
2023-05-07T04:53:05.745Z,9.90
2023-05-07T04:59:00.414Z,9.80
2023-05-07T05:04:54.119Z,9.90
2023-05-07T05:10:49.961Z,9.80
2023-05-07T05:16:45.009Z,9.80
2023-05-07T05:22:38.201Z,9.80
2023-05-07T05:28:32.387Z,9.80
2023-05-07T05:34:26.951Z,9.90
2023-05-07T05:40:20.622Z,9.90
2023-05-07T05:46:14.281Z,10.00
2023-05-07T05:52:11.347Z,9.90
2023-05-07T05:58:04.801Z,9.90
2023-05-07T06:04:02.127Z,10.00
2023-05-07T06:09:57.976Z,10.00
2023-05-07T06:15:51.395Z,10.00
2023-05-07T06:21:44.608Z,10.00
2023-05-07T06:27:40.988Z,10.00
2023-05-07T06:33:36.261Z,10.10
2023-05-07T06:39:29.941Z,10.10
2023-05-07T06:45:24.892Z,10.10
2023-05-07T06:51:20.223Z,10.10
2023-05-07T06:57:13.807Z,10.10
2023-05-07T07:03:09.113Z,10.20
2023-05-07T07:09:02.852Z,10.20
2023-05-07T07:14:57.937Z,10.20
2023-05-07T07:20:52.783Z,10.20
2023-05-07T07:26:46.092Z,10.30
2023-05-07T07:32:40.282Z,10.40
2023-05-07T07:38:35.037Z,10.50
2023-05-07T07:44:29.435Z,10.50
2023-05-07T07:56:27.763Z,10.40
2023-05-07T08:02:21.311Z,10.50
2023-05-07T08:08:16.354Z,10.50
2023-05-07T08:14:12.298Z,10.60
2023-05-07T08:20:07.343Z,10.60
2023-05-07T08:26:00.422Z,10.60
2023-05-07T08:31:56.253Z,10.60
2023-05-07T08:37:49.750Z,10.60
2023-05-07T08:43:50.031Z,10.70
2023-05-07T08:49:45.961Z,10.80
2023-05-07T08:55:40.449Z,11.00
2023-05-07T09:01:36.490Z,11.00
2023-05-07T09:07:32.901Z,11.00
2023-05-07T09:13:27.085Z,11.10
2023-05-07T09:19:24.806Z,11.20
2023-05-07T09:25:30.688Z,11.20
2023-05-07T09:31:26.121Z,11.20
2023-05-07T09:37:21.656Z,11.20
2023-05-07T09:43:16.988Z,11.30
2023-05-07T09:49:23.809Z,11.40
2023-05-07T09:55:21.917Z,11.40
2023-05-07T10:01:20.262Z,11.40
2023-05-07T10:07:14.096Z,11.60
2023-05-07T10:13:11.564Z,11.60
2023-05-07T10:19:10.891Z,11.80
2023-05-07T10:25:08.469Z,11.90
2023-05-07T10:31:17.112Z,12.00
2023-05-07T10:37:14.938Z,12.10
2023-05-07T10:43:10.994Z,12.30
2023-05-07T10:49:17.186Z,12.40
2023-05-07T10:55:28.908Z,12.30
2023-05-07T11:01:53.735Z,12.50
2023-05-07T11:07:57.126Z,12.40
2023-05-07T11:13:56.834Z,12.50
2023-05-07T11:19:58.281Z,12.90
2023-05-07T11:26:11.071Z,13.10
2023-05-07T11:32:07.629Z,13.30
2023-05-07T11:38:10.212Z,13.20
2023-05-07T11:44:03.962Z,13.40
2023-05-07T11:49:58.554Z,13.70
2023-05-07T11:55:54.543Z,14.10
2023-05-07T12:01:50.486Z,14.10
2023-05-07T12:07:45.179Z,14.40
2023-05-07T12:13:38.370Z,14.80
2023-05-07T12:19:32.302Z,15.10
2023-05-07T12:25:27.119Z,15.00
2023-05-07T12:31:20.828Z,15.10
2023-05-07T12:37:14.689Z,15.30
2023-05-07T12:43:09.693Z,15.40
2023-05-07T12:49:02.990Z,15.20
2023-05-07T12:54:56.309Z,15.10
2023-05-07T13:00:52.697Z,15.30
2023-05-07T13:06:45.977Z,15.20
2023-05-07T13:12:39.006Z,15.20
2023-05-07T13:18:34.841Z,15.40
2023-05-07T13:24:27.934Z,15.70
2023-05-07T13:30:21.241Z,16.10
2023-05-07T13:36:15.852Z,16.40
2023-05-07T13:42:08.993Z,17.10
2023-05-07T13:48:02.636Z,17.70
2023-05-07T13:53:57.028Z,17.70
2023-05-07T13:59:50.105Z,17.90
2023-05-07T14:05:43.256Z,18.40
2023-05-07T14:11:37.955Z,19.10
2023-05-07T14:17:31.316Z,20.30
2023-05-07T14:23:27.637Z,19.90
2023-05-07T14:29:24.334Z,20.40
2023-05-07T14:35:17.571Z,20.20
2023-05-07T14:41:10.843Z,20.40
2023-05-07T14:47:05.640Z,19.60
2023-05-07T14:52:58.959Z,18.40
2023-05-07T14:58:52.398Z,17.70
2023-05-07T15:04:47.747Z,17.20
2023-05-07T15:10:42.536Z,17.00
2023-05-07T15:16:36.260Z,16.60
2023-05-07T15:22:31.899Z,16.70
2023-05-07T15:28:25.682Z,16.60
2023-05-07T15:34:22.455Z,16.60
2023-05-07T15:40:17.291Z,16.50
2023-05-07T15:46:10.429Z,16.60
2023-05-07T15:52:03.798Z,16.50
2023-05-07T15:57:58.253Z,16.40
2023-05-07T16:03:51.795Z,16.30
2023-05-07T16:09:45.173Z,16.20
2023-05-07T16:15:39.838Z,16.20
2023-05-07T16:21:33.388Z,16.20
2023-05-07T16:27:28.622Z,16.20
2023-05-07T16:33:23.282Z,16.30
2023-05-07T16:39:16.492Z,16.10
2023-05-07T16:45:10.798Z,16.00
2023-05-07T16:51:07.376Z,16.00
2023-05-07T16:57:00.760Z,15.90
2023-05-07T17:02:54.315Z,15.90
2023-05-07T17:08:49.025Z,15.80
2023-05-07T17:14:42.270Z,15.80
2023-05-07T17:20:36.297Z,15.70
2023-05-07T17:26:31.748Z,15.70
2023-05-07T17:32:25.601Z,15.60
2023-05-07T17:38:18.722Z,15.50
2023-05-07T17:44:13.196Z,15.50
2023-05-07T17:50:10.821Z,15.40
2023-05-07T17:56:04.512Z,15.40
2023-05-07T18:01:59.037Z,15.30
2023-05-07T18:07:52.314Z,15.20
2023-05-07T18:13:45.718Z,15.20
2023-05-07T18:19:40.753Z,15.00
2023-05-07T18:25:33.863Z,15.00
2023-05-07T18:31:27.357Z,14.90
2023-05-07T18:37:23.480Z,14.90
2023-05-07T18:43:20.708Z,14.70
2023-05-07T18:49:13.748Z,14.70
2023-05-07T18:55:11.206Z,14.60
2023-05-07T19:01:08.030Z,14.50
2023-05-07T19:07:01.360Z,14.50
2023-05-07T19:12:57.665Z,14.40
2023-05-07T19:18:51.114Z,14.30
2023-05-07T19:24:44.325Z,14.30
2023-05-07T19:30:40.843Z,14.20
2023-05-07T19:36:34.572Z,14.10
2023-05-07T19:42:27.583Z,14.10
2023-05-07T19:48:21.983Z,14.10
2023-05-07T19:54:15.279Z,14.10
2023-05-07T20:00:09.668Z,14.00
2023-05-07T20:06:10.164Z,13.90
2023-05-07T20:12:03.459Z,13.90
2023-05-07T20:17:56.613Z,13.80
2023-05-07T20:23:51.554Z,13.80
2023-05-07T20:29:45.940Z,13.70
2023-05-07T20:35:39.141Z,13.60
2023-05-07T20:41:33.686Z,13.60
2023-05-07T20:47:27.822Z,13.60
2023-05-07T20:53:21.064Z,13.50
2023-05-07T20:59:16.481Z,13.50
2023-05-07T21:05:10.813Z,13.30
2023-05-07T21:11:04.174Z,13.30
2023-05-07T21:17:00.313Z,13.30
2023-05-07T21:22:53.619Z,13.30
2023-05-07T21:28:47.139Z,13.20
2023-05-07T21:34:41.897Z,13.20
2023-05-07T21:40:35.252Z,13.20
2023-05-07T21:46:28.292Z,13.10
2023-05-07T21:52:26.108Z,13.00
2023-05-07T21:58:19.262Z,12.80
2023-05-07T22:04:12.678Z,12.70
2023-05-07T22:10:08.711Z,12.70
2023-05-07T22:16:01.985Z,12.70
2023-05-07T22:21:55.394Z,12.60
2023-05-07T22:27:50.760Z,12.60
2023-05-07T22:33:43.844Z,12.60
2023-05-07T22:39:37.395Z,12.60
2023-05-07T22:45:32.130Z,12.60
2023-05-07T22:51:26.111Z,12.50
2023-05-07T22:57:19.359Z,12.50
2023-05-07T23:23:16.957Z,12.40
2023-05-07T23:29:10.431Z,12.30
2023-05-07T23:35:03.887Z,12.30
2023-05-07T23:40:58.313Z,12.20
2023-05-07T23:46:51.361Z,12.20
2023-05-07T23:52:44.784Z,12.00
2023-05-07T23:58:39.626Z,11.90
